sensor_id;sensor_type;location;lat;lon;timestamp;P1;durP1;ratioP1;P2;durP2;ratioP2
19004;SDS011;9635;52.078;8.648;2022-08-18T00:00:07;50.55;;;37.30;;
19004;SDS011;9635;52.078;8.648;2022-08-18T00:05:22;52.40;;;40.80;;
19004;SDS011;9635;52.078;8.648;2022-08-18T00:10:25;55.08;;;41.22;;
19004;SDS011;9635;52.078;8.648;2022-08-18T00:15:28;68.47;;;47.78;;
19004;SDS011;9635;52.078;8.648;2022-08-18T00:20:43;66.22;;;49.22;;
19004;SDS011;9635;52.078;8.648;2022-08-18T00:25:46;69.00;;;52.13;;
19004;SDS011;9635;52.078;8.648;2022-08-18T00:30:50;76.18;;;52.72;;
19004;SDS011;9635;52.078;8.648;2022-08-18T00:35:56;79.18;;;55.42;;
19004;SDS011;9635;52.078;8.648;2022-08-18T00:40:58;74.68;;;53.15;;
19004;SDS011;9635;52.078;8.648;2022-08-18T00:46:05;77.65;;;57.00;;
19004;SDS011;9635;52.078;8.648;2022-08-18T00:51:11;75.00;;;55.45;;
19004;SDS011;9635;52.078;8.648;2022-08-18T00:56:20;79.80;;;54.70;;
19004;SDS011;9635;52.078;8.648;2022-08-18T01:01:27;77.38;;;55.03;;
19004;SDS011;9635;52.078;8.648;2022-08-18T01:06:33;81.70;;;57.13;;
19004;SDS011;9635;52.078;8.648;2022-08-18T01:11:40;83.93;;;59.10;;
19004;SDS011;9635;52.078;8.648;2022-08-18T01:16:43;81.22;;;57.17;;
19004;SDS011;9635;52.078;8.648;2022-08-18T01:22:10;88.57;;;61.88;;
19004;SDS011;9635;52.078;8.648;2022-08-18T01:27:20;84.82;;;59.75;;
19004;SDS011;9635;52.078;8.648;2022-08-18T01:32:24;83.05;;;57.65;;
19004;SDS011;9635;52.078;8.648;2022-08-18T01:37:28;73.45;;;55.83;;
19004;SDS011;9635;52.078;8.648;2022-08-18T01:42:32;72.38;;;54.65;;
19004;SDS011;9635;52.078;8.648;2022-08-18T01:47:36;73.90;;;53.20;;
19004;SDS011;9635;52.078;8.648;2022-08-18T01:57:55;87.70;;;59.88;;
19004;SDS011;9635;52.078;8.648;2022-08-18T02:02:58;82.72;;;56.35;;
19004;SDS011;9635;52.078;8.648;2022-08-18T02:08:03;87.32;;;58.85;;
19004;SDS011;9635;52.078;8.648;2022-08-18T02:13:08;81.82;;;55.72;;
19004;SDS011;9635;52.078;8.648;2022-08-18T02:18:12;91.53;;;61.17;;
19004;SDS011;9635;52.078;8.648;2022-08-18T02:23:36;93.57;;;66.18;;
19004;SDS011;9635;52.078;8.648;2022-08-18T02:28:41;96.90;;;63.33;;
19004;SDS011;9635;52.078;8.648;2022-08-18T02:33:46;94.82;;;62.45;;
19004;SDS011;9635;52.078;8.648;2022-08-18T02:38:52;92.35;;;61.78;;
19004;SDS011;9635;52.078;8.648;2022-08-18T02:44:01;85.90;;;59.70;;
19004;SDS011;9635;52.078;8.648;2022-08-18T02:49:05;75.63;;;53.17;;
19004;SDS011;9635;52.078;8.648;2022-08-18T02:54:08;74.65;;;51.22;;
19004;SDS011;9635;52.078;8.648;2022-08-18T02:59:13;80.53;;;57.25;;
19004;SDS011;9635;52.078;8.648;2022-08-18T03:04:19;84.20;;;59.63;;
19004;SDS011;9635;52.078;8.648;2022-08-18T03:09:30;77.37;;;56.87;;
19004;SDS011;9635;52.078;8.648;2022-08-18T03:14:36;75.03;;;55.70;;
19004;SDS011;9635;52.078;8.648;2022-08-18T03:19:40;85.50;;;61.28;;
19004;SDS011;9635;52.078;8.648;2022-08-18T03:24:48;90.22;;;61.65;;
19004;SDS011;9635;52.078;8.648;2022-08-18T03:29:52;86.60;;;62.28;;
19004;SDS011;9635;52.078;8.648;2022-08-18T03:34:55;89.50;;;62.38;;
19004;SDS011;9635;52.078;8.648;2022-08-18T03:39:58;93.20;;;65.65;;
19004;SDS011;9635;52.078;8.648;2022-08-18T03:45:02;96.30;;;67.63;;
19004;SDS011;9635;52.078;8.648;2022-08-18T03:50:18;99.72;;;67.93;;
19004;SDS011;9635;52.078;8.648;2022-08-18T03:55:21;105.45;;;69.05;;
19004;SDS011;9635;52.078;8.648;2022-08-18T04:00:26;103.35;;;68.43;;
19004;SDS011;9635;52.078;8.648;2022-08-18T04:05:29;107.80;;;73.18;;
19004;SDS011;9635;52.078;8.648;2022-08-18T04:10:32;112.25;;;75.88;;
19004;SDS011;9635;52.078;8.648;2022-08-18T04:15:37;125.45;;;81.05;;
19004;SDS011;9635;52.078;8.648;2022-08-18T04:20:39;117.53;;;74.63;;
19004;SDS011;9635;52.078;8.648;2022-08-18T04:26:00;115.70;;;76.47;;
19004;SDS011;9635;52.078;8.648;2022-08-18T04:31:09;119.60;;;77.95;;
19004;SDS011;9635;52.078;8.648;2022-08-18T04:36:14;110.82;;;68.35;;
19004;SDS011;9635;52.078;8.648;2022-08-18T04:41:21;101.95;;;67.65;;
19004;SDS011;9635;52.078;8.648;2022-08-18T04:46:29;110.45;;;70.70;;
19004;SDS011;9635;52.078;8.648;2022-08-18T04:51:39;102.43;;;63.80;;
19004;SDS011;9635;52.078;8.648;2022-08-18T04:57:07;110.85;;;69.10;;
19004;SDS011;9635;52.078;8.648;2022-08-18T05:02:14;98.28;;;62.47;;
19004;SDS011;9635;52.078;8.648;2022-08-18T05:07:19;97.72;;;64.25;;
19004;SDS011;9635;52.078;8.648;2022-08-18T05:12:24;97.70;;;62.55;;
19004;SDS011;9635;52.078;8.648;2022-08-18T05:17:28;96.32;;;60.55;;
19004;SDS011;9635;52.078;8.648;2022-08-18T05:22:35;97.22;;;59.80;;
19004;SDS011;9635;52.078;8.648;2022-08-18T05:27:40;96.70;;;59.72;;
19004;SDS011;9635;52.078;8.648;2022-08-18T05:32:45;97.13;;;61.75;;
19004;SDS011;9635;52.078;8.648;2022-08-18T05:37:54;106.32;;;65.30;;
19004;SDS011;9635;52.078;8.648;2022-08-18T05:43:09;96.47;;;61.03;;
19004;SDS011;9635;52.078;8.648;2022-08-18T05:48:14;82.90;;;52.30;;
19004;SDS011;9635;52.078;8.648;2022-08-18T05:53:17;78.72;;;47.67;;
19004;SDS011;9635;52.078;8.648;2022-08-18T05:58:41;67.65;;;45.00;;
19004;SDS011;9635;52.078;8.648;2022-08-18T06:03:50;74.25;;;49.65;;
19004;SDS011;9635;52.078;8.648;2022-08-18T06:08:57;74.57;;;48.38;;
19004;SDS011;9635;52.078;8.648;2022-08-18T06:14:06;63.97;;;44.42;;
19004;SDS011;9635;52.078;8.648;2022-08-18T06:19:13;59.00;;;41.63;;
19004;SDS011;9635;52.078;8.648;2022-08-18T06:24:30;55.40;;;39.17;;
19004;SDS011;9635;52.078;8.648;2022-08-18T06:29:41;49.55;;;36.67;;
19004;SDS011;9635;52.078;8.648;2022-08-18T06:35:02;51.33;;;37.15;;
19004;SDS011;9635;52.078;8.648;2022-08-18T06:40:15;49.80;;;35.58;;
19004;SDS011;9635;52.078;8.648;2022-08-18T06:45:18;47.80;;;35.58;;
19004;SDS011;9635;52.078;8.648;2022-08-18T06:50:37;48.22;;;33.95;;
19004;SDS011;9635;52.078;8.648;2022-08-18T06:55:47;44.08;;;34.05;;
19004;SDS011;9635;52.078;8.648;2022-08-18T07:00:56;46.85;;;34.17;;
19004;SDS011;9635;52.078;8.648;2022-08-18T07:06:04;36.50;;;28.38;;
19004;SDS011;9635;52.078;8.648;2022-08-18T07:11:10;44.22;;;32.22;;
19004;SDS011;9635;52.078;8.648;2022-08-18T07:16:16;43.88;;;32.92;;
19004;SDS011;9635;52.078;8.648;2022-08-18T07:21:46;39.22;;;30.52;;
19004;SDS011;9635;52.078;8.648;2022-08-18T07:27:03;36.80;;;29.85;;
19004;SDS011;9635;52.078;8.648;2022-08-18T07:32:09;40.58;;;31.50;;
19004;SDS011;9635;52.078;8.648;2022-08-18T07:37:23;40.53;;;30.90;;
19004;SDS011;9635;52.078;8.648;2022-08-18T07:42:31;43.75;;;35.08;;
19004;SDS011;9635;52.078;8.648;2022-08-18T07:48:03;46.90;;;36.08;;
19004;SDS011;9635;52.078;8.648;2022-08-18T07:53:35;51.05;;;36.08;;
19004;SDS011;9635;52.078;8.648;2022-08-18T07:58:57;48.70;;;35.72;;
19004;SDS011;9635;52.078;8.648;2022-08-18T08:04:07;49.05;;;36.35;;
19004;SDS011;9635;52.078;8.648;2022-08-18T08:09:29;50.40;;;37.93;;
19004;SDS011;9635;52.078;8.648;2022-08-18T08:14:49;53.30;;;39.65;;
19004;SDS011;9635;52.078;8.648;2022-08-18T08:20:03;50.30;;;37.40;;
19004;SDS011;9635;52.078;8.648;2022-08-18T08:25:23;49.55;;;36.95;;
19004;SDS011;9635;52.078;8.648;2022-08-18T08:30:48;54.00;;;40.47;;
19004;SDS011;9635;52.078;8.648;2022-08-18T08:36:24;54.08;;;38.08;;
19004;SDS011;9635;52.078;8.648;2022-08-18T08:41:35;49.10;;;37.72;;
19004;SDS011;9635;52.078;8.648;2022-08-18T08:46:43;47.38;;;34.75;;
19004;SDS011;9635;52.078;8.648;2022-08-18T08:51:51;48.33;;;37.30;;
19004;SDS011;9635;52.078;8.648;2022-08-18T08:56:59;44.03;;;33.50;;
19004;SDS011;9635;52.078;8.648;2022-08-18T09:02:08;39.25;;;31.60;;
19004;SDS011;9635;52.078;8.648;2022-08-18T09:07:52;39.83;;;31.15;;
19004;SDS011;9635;52.078;8.648;2022-08-18T09:13:23;40.40;;;31.25;;
19004;SDS011;9635;52.078;8.648;2022-08-18T09:18:48;37.08;;;29.77;;
19004;SDS011;9635;52.078;8.648;2022-08-18T09:24:11;45.20;;;33.30;;
19004;SDS011;9635;52.078;8.648;2022-08-18T09:29:26;42.72;;;33.20;;
19004;SDS011;9635;52.078;8.648;2022-08-18T09:34:52;41.28;;;33.20;;
19004;SDS011;9635;52.078;8.648;2022-08-18T09:40:08;44.13;;;34.10;;
19004;SDS011;9635;52.078;8.648;2022-08-18T09:45:54;54.10;;;36.55;;
19004;SDS011;9635;52.078;8.648;2022-08-18T09:56:56;52.72;;;39.58;;
19004;SDS011;9635;52.078;8.648;2022-08-18T10:08:30;54.58;;;39.20;;
19004;SDS011;9635;52.078;8.648;2022-08-18T10:13:45;53.35;;;40.53;;
19004;SDS011;9635;52.078;8.648;2022-08-18T10:18:56;58.42;;;42.53;;
19004;SDS011;9635;52.078;8.648;2022-08-18T10:24:13;54.05;;;39.65;;
19004;SDS011;9635;52.078;8.648;2022-08-18T10:29:45;56.55;;;40.38;;
19004;SDS011;9635;52.078;8.648;2022-08-18T10:34:51;42.38;;;34.28;;
19004;SDS011;9635;52.078;8.648;2022-08-18T10:39:58;44.80;;;33.78;;
19004;SDS011;9635;52.078;8.648;2022-08-18T10:45:05;41.03;;;33.17;;
19004;SDS011;9635;52.078;8.648;2022-08-18T10:50:22;38.40;;;29.83;;
19004;SDS011;9635;52.078;8.648;2022-08-18T10:55:38;44.58;;;32.90;;
19004;SDS011;9635;52.078;8.648;2022-08-18T11:00:54;41.85;;;32.50;;
19004;SDS011;9635;52.078;8.648;2022-08-18T11:06:05;35.97;;;27.88;;
19004;SDS011;9635;52.078;8.648;2022-08-18T11:11:36;38.85;;;28.92;;
19004;SDS011;9635;52.078;8.648;2022-08-18T11:16:54;39.08;;;28.90;;
19004;SDS011;9635;52.078;8.648;2022-08-18T11:22:19;37.97;;;28.48;;
19004;SDS011;9635;52.078;8.648;2022-08-18T11:27:34;37.22;;;27.08;;
19004;SDS011;9635;52.078;8.648;2022-08-18T11:32:40;33.05;;;26.92;;
19004;SDS011;9635;52.078;8.648;2022-08-18T11:37:54;32.08;;;26.08;;
19004;SDS011;9635;52.078;8.648;2022-08-18T11:43:02;27.42;;;23.77;;
19004;SDS011;9635;52.078;8.648;2022-08-18T11:48:10;30.63;;;23.65;;
19004;SDS011;9635;52.078;8.648;2022-08-18T11:53:25;33.85;;;27.45;;
19004;SDS011;9635;52.078;8.648;2022-08-18T11:58:41;33.38;;;26.95;;
19004;SDS011;9635;52.078;8.648;2022-08-18T12:03:50;34.63;;;27.17;;
19004;SDS011;9635;52.078;8.648;2022-08-18T12:08:55;35.22;;;27.65;;
19004;SDS011;9635;52.078;8.648;2022-08-18T12:14:04;36.45;;;27.92;;
19004;SDS011;9635;52.078;8.648;2022-08-18T12:19:29;34.75;;;28.88;;
19004;SDS011;9635;52.078;8.648;2022-08-18T12:24:35;39.55;;;29.05;;
19004;SDS011;9635;52.078;8.648;2022-08-18T12:29:41;31.58;;;24.88;;
19004;SDS011;9635;52.078;8.648;2022-08-18T12:34:44;27.50;;;24.15;;
19004;SDS011;9635;52.078;8.648;2022-08-18T12:39:48;24.77;;;21.63;;
19004;SDS011;9635;52.078;8.648;2022-08-18T12:44:52;26.98;;;23.67;;
19004;SDS011;9635;52.078;8.648;2022-08-18T12:49:55;27.63;;;21.30;;
19004;SDS011;9635;52.078;8.648;2022-08-18T12:54:58;26.67;;;21.88;;
19004;SDS011;9635;52.078;8.648;2022-08-18T13:00:05;28.00;;;23.35;;
19004;SDS011;9635;52.078;8.648;2022-08-18T13:05:15;28.42;;;24.65;;
19004;SDS011;9635;52.078;8.648;2022-08-18T13:10:28;31.17;;;25.10;;
19004;SDS011;9635;52.078;8.648;2022-08-18T13:15:48;31.70;;;25.20;;
19004;SDS011;9635;52.078;8.648;2022-08-18T13:20:59;28.98;;;23.48;;
19004;SDS011;9635;52.078;8.648;2022-08-18T13:26:04;27.55;;;21.02;;
19004;SDS011;9635;52.078;8.648;2022-08-18T13:31:11;26.42;;;23.27;;
19004;SDS011;9635;52.078;8.648;2022-08-18T13:36:14;23.80;;;20.45;;
19004;SDS011;9635;52.078;8.648;2022-08-18T13:41:17;25.70;;;20.63;;
19004;SDS011;9635;52.078;8.648;2022-08-18T13:46:25;26.02;;;20.30;;
19004;SDS011;9635;52.078;8.648;2022-08-18T13:51:31;22.10;;;18.70;;
19004;SDS011;9635;52.078;8.648;2022-08-18T13:56:34;24.77;;;20.50;;
19004;SDS011;9635;52.078;8.648;2022-08-18T14:01:41;22.00;;;19.33;;
19004;SDS011;9635;52.078;8.648;2022-08-18T14:06:53;24.58;;;20.23;;
19004;SDS011;9635;52.078;8.648;2022-08-18T14:12:01;22.75;;;19.20;;
19004;SDS011;9635;52.078;8.648;2022-08-18T14:17:07;18.33;;;16.42;;
19004;SDS011;9635;52.078;8.648;2022-08-18T14:22:10;18.38;;;15.65;;
19004;SDS011;9635;52.078;8.648;2022-08-18T14:27:31;19.30;;;17.13;;
19004;SDS011;9635;52.078;8.648;2022-08-18T14:32:37;14.80;;;13.32;;
19004;SDS011;9635;52.078;8.648;2022-08-18T14:37:49;15.95;;;14.25;;
19004;SDS011;9635;52.078;8.648;2022-08-18T14:42:56;14.65;;;13.20;;
19004;SDS011;9635;52.078;8.648;2022-08-18T14:48:01;18.45;;;12.85;;
19004;SDS011;9635;52.078;8.648;2022-08-18T14:53:11;43.75;;;11.57;;
19004;SDS011;9635;52.078;8.648;2022-08-18T14:58:15;43.28;;;10.70;;
19004;SDS011;9635;52.078;8.648;2022-08-18T15:03:20;14.55;;;13.05;;
19004;SDS011;9635;52.078;8.648;2022-08-18T15:08:32;44.83;;;14.57;;
19004;SDS011;9635;52.078;8.648;2022-08-18T15:13:37;10.02;;;8.93;;
19004;SDS011;9635;52.078;8.648;2022-08-18T15:18:42;101.78;;;14.32;;
19004;SDS011;9635;52.078;8.648;2022-08-18T15:23:48;10.52;;;9.07;;
19004;SDS011;9635;52.078;8.648;2022-08-18T15:34:29;10.90;;;9.90;;
19004;SDS011;9635;52.078;8.648;2022-08-18T15:39:32;30.00;;;10.25;;
19004;SDS011;9635;52.078;8.648;2022-08-18T15:44:35;14.30;;;7.88;;
19004;SDS011;9635;52.078;8.648;2022-08-18T15:49:40;11.73;;;7.72;;
19004;SDS011;9635;52.078;8.648;2022-08-18T15:54:44;9.15;;;7.40;;
19004;SDS011;9635;52.078;8.648;2022-08-18T15:59:51;10.65;;;8.10;;
19004;SDS011;9635;52.078;8.648;2022-08-18T16:04:57;9.02;;;8.18;;
19004;SDS011;9635;52.078;8.648;2022-08-18T16:10:12;30.65;;;10.23;;
19004;SDS011;9635;52.078;8.648;2022-08-18T16:15:17;17.15;;;8.68;;
19004;SDS011;9635;52.078;8.648;2022-08-18T16:20:24;11.73;;;7.85;;
19004;SDS011;9635;52.078;8.648;2022-08-18T16:25:29;8.10;;;6.90;;
19004;SDS011;9635;52.078;8.648;2022-08-18T16:30:32;6.30;;;5.70;;
19004;SDS011;9635;52.078;8.648;2022-08-18T16:35:37;6.05;;;5.32;;
19004;SDS011;9635;52.078;8.648;2022-08-18T16:40:45;5.90;;;5.40;;
19004;SDS011;9635;52.078;8.648;2022-08-18T16:45:48;6.28;;;5.47;;
19004;SDS011;9635;52.078;8.648;2022-08-18T16:50:54;5.90;;;5.32;;
19004;SDS011;9635;52.078;8.648;2022-08-18T16:55:56;6.97;;;5.78;;
19004;SDS011;9635;52.078;8.648;2022-08-18T17:01:00;10.45;;;5.50;;
19004;SDS011;9635;52.078;8.648;2022-08-18T17:06:24;6.75;;;5.07;;
19004;SDS011;9635;52.078;8.648;2022-08-18T17:11:28;7.65;;;5.72;;
19004;SDS011;9635;52.078;8.648;2022-08-18T17:16:32;6.25;;;5.65;;
19004;SDS011;9635;52.078;8.648;2022-08-18T17:21:37;5.63;;;5.15;;
19004;SDS011;9635;52.078;8.648;2022-08-18T17:26:42;9.35;;;5.65;;
19004;SDS011;9635;52.078;8.648;2022-08-18T17:31:50;7.32;;;5.78;;
19004;SDS011;9635;52.078;8.648;2022-08-18T17:36:59;7.25;;;5.68;;
19004;SDS011;9635;52.078;8.648;2022-08-18T17:42:04;6.93;;;6.28;;
19004;SDS011;9635;52.078;8.648;2022-08-18T17:47:30;6.43;;;5.38;;
19004;SDS011;9635;52.078;8.648;2022-08-18T17:57:53;4.63;;;4.10;;
19004;SDS011;9635;52.078;8.648;2022-08-18T18:03:02;6.93;;;4.70;;
19004;SDS011;9635;52.078;8.648;2022-08-18T18:08:09;5.97;;;4.50;;
19004;SDS011;9635;52.078;8.648;2022-08-18T18:13:21;5.10;;;4.10;;
19004;SDS011;9635;52.078;8.648;2022-08-18T18:18:31;7.20;;;4.63;;
19004;SDS011;9635;52.078;8.648;2022-08-18T18:23:40;5.57;;;4.40;;
19004;SDS011;9635;52.078;8.648;2022-08-18T18:28:46;6.47;;;4.22;;
19004;SDS011;9635;52.078;8.648;2022-08-18T18:33:53;5.70;;;4.47;;
19004;SDS011;9635;52.078;8.648;2022-08-18T18:39:06;5.35;;;3.95;;
19004;SDS011;9635;52.078;8.648;2022-08-18T18:44:11;7.22;;;4.70;;
19004;SDS011;9635;52.078;8.648;2022-08-18T18:49:17;5.28;;;3.83;;
19004;SDS011;9635;52.078;8.648;2022-08-18T18:54:37;6.00;;;4.50;;
19004;SDS011;9635;52.078;8.648;2022-08-18T18:59:54;7.70;;;4.50;;
19004;SDS011;9635;52.078;8.648;2022-08-18T19:05:08;5.57;;;3.75;;
19004;SDS011;9635;52.078;8.648;2022-08-18T19:10:23;7.15;;;4.40;;
19004;SDS011;9635;52.078;8.648;2022-08-18T19:15:31;6.28;;;4.78;;
19004;SDS011;9635;52.078;8.648;2022-08-18T19:20:39;5.63;;;4.07;;
19004;SDS011;9635;52.078;8.648;2022-08-18T19:26:10;5.07;;;4.55;;
19004;SDS011;9635;52.078;8.648;2022-08-18T19:31:20;5.03;;;4.43;;
19004;SDS011;9635;52.078;8.648;2022-08-18T19:36:27;7.20;;;4.72;;
19004;SDS011;9635;52.078;8.648;2022-08-18T19:41:39;6.47;;;4.90;;
19004;SDS011;9635;52.078;8.648;2022-08-18T19:46:49;7.68;;;4.28;;
19004;SDS011;9635;52.078;8.648;2022-08-18T19:51:56;6.43;;;4.75;;
19004;SDS011;9635;52.078;8.648;2022-08-18T19:57:09;6.75;;;4.70;;
19004;SDS011;9635;52.078;8.648;2022-08-18T20:02:29;7.32;;;5.05;;
19004;SDS011;9635;52.078;8.648;2022-08-18T20:07:58;8.70;;;4.78;;
19004;SDS011;9635;52.078;8.648;2022-08-18T20:13:22;6.87;;;4.67;;
19004;SDS011;9635;52.078;8.648;2022-08-18T20:18:33;5.53;;;4.68;;
19004;SDS011;9635;52.078;8.648;2022-08-18T20:23:56;9.18;;;5.03;;
19004;SDS011;9635;52.078;8.648;2022-08-18T20:29:04;6.68;;;5.00;;
19004;SDS011;9635;52.078;8.648;2022-08-18T20:34:08;9.27;;;4.82;;
19004;SDS011;9635;52.078;8.648;2022-08-18T20:39:39;6.55;;;5.53;;
19004;SDS011;9635;52.078;8.648;2022-08-18T20:44:55;9.88;;;5.30;;
19004;SDS011;9635;52.078;8.648;2022-08-18T20:50:05;10.85;;;5.93;;
19004;SDS011;9635;52.078;8.648;2022-08-18T20:55:23;12.48;;;6.18;;
19004;SDS011;9635;52.078;8.648;2022-08-18T21:00:32;11.32;;;5.93;;
19004;SDS011;9635;52.078;8.648;2022-08-18T21:05:39;8.27;;;5.88;;
19004;SDS011;9635;52.078;8.648;2022-08-18T21:10:46;10.15;;;6.18;;
19004;SDS011;9635;52.078;8.648;2022-08-18T21:15:51;11.05;;;6.75;;
19004;SDS011;9635;52.078;8.648;2022-08-18T21:20:56;9.18;;;6.22;;
19004;SDS011;9635;52.078;8.648;2022-08-18T21:26:02;10.50;;;5.95;;
19004;SDS011;9635;52.078;8.648;2022-08-18T21:31:22;9.90;;;5.97;;
19004;SDS011;9635;52.078;8.648;2022-08-18T21:36:48;7.07;;;6.32;;
19004;SDS011;9635;52.078;8.648;2022-08-18T21:41:52;9.00;;;6.25;;
19004;SDS011;9635;52.078;8.648;2022-08-18T21:47:02;11.02;;;6.07;;
19004;SDS011;9635;52.078;8.648;2022-08-18T21:52:07;10.45;;;6.60;;
19004;SDS011;9635;52.078;8.648;2022-08-18T21:57:17;14.20;;;7.15;;
19004;SDS011;9635;52.078;8.648;2022-08-18T22:02:23;10.70;;;6.60;;
19004;SDS011;9635;52.078;8.648;2022-08-18T22:07:26;9.38;;;6.45;;
19004;SDS011;9635;52.078;8.648;2022-08-18T22:12:35;13.27;;;7.05;;
19004;SDS011;9635;52.078;8.648;2022-08-18T22:17:58;10.30;;;6.80;;
19004;SDS011;9635;52.078;8.648;2022-08-18T22:23:05;11.95;;;6.95;;
19004;SDS011;9635;52.078;8.648;2022-08-18T22:28:32;10.75;;;6.35;;
19004;SDS011;9635;52.078;8.648;2022-08-18T22:33:38;11.63;;;6.65;;
19004;SDS011;9635;52.078;8.648;2022-08-18T22:38:41;12.07;;;6.43;;
19004;SDS011;9635;52.078;8.648;2022-08-18T22:43:45;9.80;;;6.95;;
19004;SDS011;9635;52.078;8.648;2022-08-18T22:48:56;13.63;;;7.25;;
19004;SDS011;9635;52.078;8.648;2022-08-18T22:54:00;16.23;;;7.43;;
19004;SDS011;9635;52.078;8.648;2022-08-18T22:59:04;12.35;;;8.00;;
19004;SDS011;9635;52.078;8.648;2022-08-18T23:04:21;10.45;;;7.53;;
19004;SDS011;9635;52.078;8.648;2022-08-18T23:09:26;12.00;;;7.35;;
19004;SDS011;9635;52.078;8.648;2022-08-18T23:14:31;15.25;;;7.18;;
19004;SDS011;9635;52.078;8.648;2022-08-18T23:19:36;8.25;;;6.63;;
19004;SDS011;9635;52.078;8.648;2022-08-18T23:24:41;10.98;;;6.95;;
19004;SDS011;9635;52.078;8.648;2022-08-18T23:29:43;13.48;;;7.10;;
19004;SDS011;9635;52.078;8.648;2022-08-18T23:34:48;11.10;;;7.00;;
19004;SDS011;9635;52.078;8.648;2022-08-18T23:39:51;8.82;;;6.43;;
19004;SDS011;9635;52.078;8.648;2022-08-18T23:44:56;9.07;;;6.82;;
19004;SDS011;9635;52.078;8.648;2022-08-18T23:50:05;9.93;;;6.45;;
19004;SDS011;9635;52.078;8.648;2022-08-18T23:55:09;11.40;;;7.03;;
